Time;durP1;ratioP1;P1;durP2;ratioP2;P2;SDS_P1;SDS_P2;PMS_P1;PMS_P2;Temp;Humidity;BMP_temperature;BMP_pressure;BME280_temperature;BME280_humidity;BME280_pressure;Samples;Min_cycle;Max_cycle;Signal;HPM_P1;HPM_P2
2023/09/25 00:00:08;;;;;;;5.40;5.00;;;;;;;9.45;81.21;101087.76;218215;1257;139994;-74
2023/09/25 00:05:32;;;;;;;5.30;3.60;;;;;;;9.52;81.96;101088.60;218128;1259;140414;-71
2023/09/25 00:10:36;;;;;;;4.80;4.30;;;;;;;9.61;82.38;101090.52;217623;1257;140064;-69
2023/09/25 00:15:44;;;;;;;6.70;4.10;;;;;;;9.71;82.85;101098.36;218848;1256;141595;-69
2023/09/25 00:20:47;;;;;;;5.80;4.30;;;;;;;9.78;83.00;101102.08;217955;1259;139754;-69
2023/09/25 00:25:50;;;;;;;11.40;5.10;;;;;;;9.90;83.53;101105.14;217975;1259;139955;-69
2023/09/25 00:30:55;;;;;;;5.20;4.50;;;;;;;10.00;83.70;101105.23;218263;1256;140996;-69
2023/09/25 00:35:59;;;;;;;7.30;6.50;;;;;;;10.07;83.80;101108.03;218669;1257;141808;-71
2023/09/25 00:41:03;;;;;;;6.30;5.70;;;;;;;10.13;83.79;101105.27;217633;1257;139701;-72
2023/09/25 00:46:07;;;;;;;7.30;4.50;;;;;;;10.18;83.88;101101.48;218270;1256;139635;-72
2023/09/25 00:51:11;;;;;;;6.50;5.60;;;;;;;10.26;84.34;101097.05;220066;1256;139753;-69
2023/09/25 00:56:16;;;;;;;9.80;5.60;;;;;;;10.37;84.71;101094.23;219436;1256;141020;-72
2023/09/25 01:01:21;;;;;;;8.40;6.70;;;;;;;10.50;84.90;101094.79;218397;1259;140488;-71
2023/09/25 01:06:26;;;;;;;7.30;5.50;;;;;;;10.62;85.05;101091.76;217494;1257;139928;-69
2023/09/25 01:11:30;;;;;;;7.40;6.10;;;;;;;10.71;85.34;101094.96;220333;1257;140240;-74
2023/09/25 01:16:33;;;;;;;12.40;6.50;;;;;;;10.81;85.31;101093.71;220605;1256;140379;-80
2023/09/25 01:21:36;;;;;;;7.20;5.30;;;;;;;10.92;85.53;101096.56;219095;1257;140681;-78
2023/09/25 01:26:39;;;;;;;6.50;5.60;;;;;;;11.03;85.70;101098.04;218891;1259;141488;-76
2023/09/25 01:31:42;;;;;;;7.80;6.30;;;;;;;11.13;85.77;101099.69;219228;1259;140147;-79
2023/09/25 01:36:47;;;;;;;8.70;6.70;;;;;;;11.22;85.92;101102.48;218209;1257;140242;-73
2023/09/25 01:41:50;;;;;;;6.20;5.70;;;;;;;11.30;86.15;101100.14;219008;1257;142234;-69
2023/09/25 01:46:53;;;;;;;5.90;5.20;;;;;;;11.37;86.33;101098.60;218450;1257;140681;-72
2023/09/25 01:51:56;;;;;;;5.80;5.20;;;;;;;11.44;86.29;101089.27;220394;1257;140524;-75
2023/09/25 01:56:59;;;;;;;6.60;4.30;;;;;;;11.51;86.25;101087.06;218738;1257;139849;-75
2023/09/25 02:02:01;;;;;;;5.60;4.10;;;;;;;11.60;86.46;101087.08;218933;1259;161851;-74
2023/09/25 02:07:04;;;;;;;5.50;3.80;;;;;;;11.69;86.46;101086.73;218611;1259;139677;-73
2023/09/25 02:12:07;;;;;;;6.60;4.70;;;;;;;11.76;86.63;101079.55;217685;1257;140967;-72
2023/09/25 02:17:11;;;;;;;5.00;4.40;;;;;;;11.83;86.84;101083.00;217292;1259;140872;-70
2023/09/25 02:22:15;;;;;;;5.00;4.40;;;;;;;11.88;86.92;101075.10;218450;1257;140045;-71
2023/09/25 02:27:18;;;;;;;5.80;3.90;;;;;;;11.93;86.68;101073.25;218754;1257;142073;-74
2023/09/25 02:32:22;;;;;;;4.50;4.10;;;;;;;11.94;86.84;101072.02;217594;1255;139875;-73
2023/09/25 02:37:25;;;;;;;9.10;5.10;;;;;;;11.97;86.72;101070.97;219220;1257;219757;-71
2023/09/25 02:42:29;;;;;;;5.70;5.10;;;;;;;12.01;86.86;101066.69;217571;1257;142434;-70
2023/09/25 02:47:33;;;;;;;7.80;5.70;;;;;;;12.06;86.75;101066.79;217928;1259;140527;-76
2023/09/25 02:52:37;;;;;;;5.70;4.80;;;;;;;12.08;86.54;101066.95;218424;1257;143472;-73
2023/09/25 02:57:40;;;;;;;6.30;4.30;;;;;;;12.11;86.28;101066.48;219274;1257;139970;-71
2023/09/25 03:02:43;;;;;;;6.80;6.10;;;;;;;12.16;86.19;101065.95;218966;1260;139816;-70
2023/09/25 03:07:47;;;;;;;6.20;5.60;;;;;;;12.20;85.87;101064.28;219047;1256;140595;-73
2023/09/25 03:12:51;;;;;;;6.60;5.10;;;;;;;12.23;85.82;101067.58;220259;1259;139617;-72
2023/09/25 03:17:54;;;;;;;5.20;4.60;;;;;;;12.26;85.91;101070.93;220363;1257;139948;-72
2023/09/25 03:22:58;;;;;;;7.00;4.60;;;;;;;12.29;86.00;101071.69;220493;1257;140458;-72
2023/09/25 03:28:00;;;;;;;8.40;5.10;;;;;;;12.33;85.77;101072.38;220387;1257;140348;-71
2023/09/25 03:33:04;;;;;;;4.90;4.50;;;;;;;12.37;85.50;101074.17;220645;1257;140359;-72
2023/09/25 03:38:09;;;;;;;6.40;5.10;;;;;;;12.40;85.69;101082.59;217456;1256;140450;-70
2023/09/25 03:43:12;;;;;;;4.40;4.00;;;;;;;12.43;85.56;101086.48;218815;1257;140636;-69
2023/09/25 03:48:16;;;;;;;4.50;4.10;;;;;;;12.42;85.48;101087.94;218822;1259;140639;-70
2023/09/25 03:53:20;;;;;;;8.40;4.60;;;;;;;12.41;85.53;101098.71;217615;1257;140683;-70
2023/09/25 03:58:23;;;;;;;8.30;4.20;;;;;;;12.41;85.44;101099.79;219174;1257;140083;-69
2023/09/25 04:03:26;;;;;;;7.20;3.90;;;;;;;12.39;85.48;101100.04;218866;1256;141037;-68
2023/09/25 04:08:39;;;;;;;5.80;4.30;;;;;;;12.39;85.75;101106.05;218416;1260;140004;-73
2023/09/25 04:13:42;;;;;;;5.90;5.00;;;;;;;12.40;85.60;101107.98;217692;1260;139682;-72
2023/09/25 04:18:45;;;;;;;15.00;4.00;;;;;;;12.38;85.68;101109.76;217483;1260;140784;-72
2023/09/25 04:23:51;;;;;;;6.20;3.60;;;;;;;12.37;85.57;101106.55;217725;1259;141549;-72
2023/09/25 04:28:57;;;;;;;8.30;4.90;;;;;;;12.37;85.42;101104.49;217709;1260;139965;-75
2023/09/25 04:34:03;;;;;;;6.90;4.80;;;;;;;12.37;85.53;101106.10;217715;1257;141584;-71
2023/09/25 04:39:10;;;;;;;4.50;4.10;;;;;;;12.37;85.51;101106.55;218440;1259;140070;-71
2023/09/25 04:44:14;;;;;;;8.30;7.00;;;;;;;12.38;85.77;101107.70;217356;1260;140355;-71
2023/09/25 04:49:18;;;;;;;5.50;5.00;;;;;;;12.39;85.44;101104.16;217439;1259;139911;-71
2023/09/25 04:54:21;;;;;;;5.70;4.50;;;;;;;12.41;85.46;101096.95;220449;1257;140810;-72
2023/09/25 04:59:24;;;;;;;5.00;4.60;;;;;;;12.45;85.34;101093.23;220439;1257;141450;-72
2023/09/25 05:04:26;;;;;;;7.00;3.90;;;;;;;12.50;85.42;101087.86;219942;1257;140887;-71
2023/09/25 05:09:29;;;;;;;4.50;3.70;;;;;;;12.58;85.18;101089.67;217654;1257;139785;-71
2023/09/25 05:14:32;;;;;;;4.80;4.20;;;;;;;12.69;85.15;101089.14;218090;1258;139908;-73
2023/09/25 05:19:34;;;;;;;4.80;4.40;;;;;;;12.79;85.02;101092.13;218069;1255;139883;-70
2023/09/25 05:24:37;;;;;;;4.30;3.80;;;;;;;12.88;85.03;101087.52;220458;1257;142258;-74
2023/09/25 05:29:43;;;;;;;4.10;3.50;;;;;;;12.91;84.69;101095.98;218971;1257;140527;-77
2023/09/25 05:34:47;;;;;;;;;;;;;;;12.97;84.57;101100.47;218315;1257;142295;-72
2023/09/25 05:39:50;;;;;;;8.30;4.40;;;;;;;13.01;84.52;101098.21;220953;1257;128133;-73
2023/09/25 05:44:54;;;;;;;7.10;4.20;;;;;;;13.08;84.38;101102.00;220462;1256;141713;-71
2023/09/25 05:49:57;;;;;;;6.50;2.80;;;;;;;13.17;84.48;101109.92;219583;1257;140251;-71
2023/09/25 05:55:01;;;;;;;5.10;4.50;;;;;;;13.27;84.34;101105.70;218660;1256;140890;-69
2023/09/25 06:00:13;;;;;;;4.30;3.60;;;;;;;13.38;83.87;101104.95;218146;1257;140218;-71
2023/09/25 06:05:18;;;;;;;5.90;3.50;;;;;;;13.56;84.06;101102.02;217926;1260;141079;-70
2023/09/25 06:10:23;;;;;;;21.30;4.20;;;;;;;13.82;83.93;101102.65;218213;1257;141355;-69
2023/09/25 06:15:30;;;;;;;5.60;3.80;;;;;;;14.04;83.78;101108.45;217647;1257;140906;-70
2023/09/25 06:20:38;;;;;;;3.80;3.00;;;;;;;14.10;83.51;101113.88;217883;1257;140631;-77
2023/09/25 06:25:44;;;;;;;5.40;3.40;;;;;;;14.14;83.28;101113.02;218833;1257;210442;-72
2023/09/25 06:30:49;;;;;;;3.40;3.10;;;;;;;14.24;82.94;101114.34;217826;1258;141205;-70
2023/09/25 06:35:52;;;;;;;3.40;3.10;;;;;;;14.42;82.94;101104.55;217651;1260;140938;-71
2023/09/25 06:40:55;;;;;;;4.90;3.00;;;;;;;14.62;82.64;101107.64;218023;1257;140035;-73
2023/09/25 06:45:57;;;;;;;3.70;2.90;;;;;;;14.83;82.45;101110.77;217697;1257;142044;-70
2023/09/25 06:51:00;;;;;;;4.50;2.40;;;;;;;15.45;82.20;101113.04;219452;1256;139949;-71
2023/09/25 06:56:04;;;;;;;5.70;3.80;;;;;;;16.12;81.59;101109.10;218854;1257;140346;-69
2023/09/25 07:01:07;;;;;;;3.60;3.10;;;;;;;16.50;80.37;101111.00;219471;1257;141759;-71
2023/09/25 07:06:10;;;;;;;3.00;2.50;;;;;;;17.13;80.15;101110.29;218709;1256;783259;-68
2023/09/25 07:11:18;;;;;;;7.20;3.20;;;;;;;18.33;79.37;101111.77;219025;1257;141197;-69
2023/09/25 07:16:21;;;;;;;3.90;3.00;;;;;;;19.69;78.34;101111.39;219229;1257;141609;-70
2023/09/25 07:21:26;;;;;;;5.80;3.30;;;;;;;20.89;76.45;101116.61;219644;1257;139433;-70
2023/09/25 07:26:29;;;;;;;6.00;3.00;;;;;;;21.93;74.53;101116.49;217973;1257;140193;-70
2023/09/25 07:31:32;;;;;;;3.10;2.90;;;;;;;22.56;72.81;101119.54;219842;1256;139678;-71
2023/09/25 07:36:36;;;;;;;4.80;4.30;;;;;;;22.92;71.48;101120.63;218108;1257;139396;-74
2023/09/25 07:41:41;;;;;;;10.80;4.00;;;;;;;23.13;69.86;101111.83;218062;1259;153666;-68
2023/09/25 07:46:47;;;;;;;11.00;4.10;;;;;;;23.20;68.96;101112.70;217907;1257;139513;-70
2023/09/25 07:51:51;;;;;;;4.30;3.90;;;;;;;23.26;68.41;101116.66;218537;1257;140249;-71
2023/09/25 07:56:53;;;;;;;6.10;3.10;;;;;;;23.29;67.40;101114.00;220798;1256;140079;-68
2023/09/25 08:01:56;;;;;;;3.60;2.80;;;;;;;23.13;66.35;101114.77;220574;1257;138946;-69
2023/09/25 08:06:59;;;;;;;3.40;2.80;;;;;;;22.79;65.17;101113.80;220650;1256;139689;-71
2023/09/25 08:12:03;;;;;;;3.20;2.60;;;;;;;22.59;65.60;101109.80;220678;1257;139776;-70
2023/09/25 08:17:08;;;;;;;3.00;2.80;;;;;;;22.66;65.08;101120.83;220547;1256;139910;-72
2023/09/25 08:22:12;;;;;;;5.20;3.40;;;;;;;22.71;64.42;101117.54;220684;1256;139100;-72
2023/09/25 08:27:15;;;;;;;4.30;3.30;;;;;;;22.70;64.06;101117.48;220930;1256;139968;-72
2023/09/25 08:32:22;;;;;;;3.50;3.00;;;;;;;22.56;63.50;101116.95;220495;1256;140406;-69
2023/09/25 08:37:25;;;;;;;2.90;2.70;;;;;;;22.55;63.53;101119.06;220623;1256;139675;-69
2023/09/25 08:42:27;;;;;;;2.90;2.40;;;;;;;22.64;63.79;101123.77;220583;1256;140523;-70
2023/09/25 08:47:34;;;;;;;2.80;2.60;;;;;;;22.73;63.30;101116.21;220615;1255;139755;-70
2023/09/25 08:54:56;;;;;;;4.00;3.10;;;;;;;22.82;62.46;101112.89;215362;1293;636025;-71
2023/09/25 09:00:15;;;;;;;3.50;3.20;;;;;;;22.79;62.19;101107.98;217188;1269;138133;-71
2023/09/25 09:05:19;;;;;;;6.20;3.50;;;;;;;22.83;62.19;101100.25;216508;1265;539579;-76
2023/09/25 09:10:31;;;;;;;4.60;3.10;;;;;;;22.97;61.94;101095.52;218477;1267;138678;-79
2023/09/25 09:15:36;;;;;;;3.40;3.10;;;;;;;23.03;61.60;101095.30;217475;1269;139451;-80
2023/09/25 09:20:42;;;;;;;3.60;3.20;;;;;;;23.20;61.14;101096.58;217763;1265;138263;-73
2023/09/25 09:25:48;;;;;;;2.60;2.40;;;;;;;23.25;60.43;101095.06;219043;1266;138501;-70
2023/09/25 09:31:33;;;;;;;2.40;2.30;;;;;;;23.09;60.24;101087.98;217952;1262;139360;-73
2023/09/25 09:36:54;;;;;;;2.40;2.20;;;;;;;23.31;60.15;101083.20;218864;1262;139194;-74
2023/09/25 09:42:01;;;;;;;3.50;3.10;;;;;;;23.40;59.62;101079.09;217192;1266;139403;-70
2023/09/25 09:47:07;;;;;;;2.90;2.50;;;;;;;23.57;59.69;101078.98;219173;1262;140142;-71
2023/09/25 09:52:12;;;;;;;;;;;;;;;23.73;59.07;101077.84;216896;1263;139005;-70
2023/09/25 09:57:19;;;;;;;2.30;2.10;;;;;;;23.63;58.59;101076.73;218007;1264;126269;-70
2023/09/25 10:02:30;;;;;;;2.80;2.50;;;;;;;23.30;58.35;101078.43;218289;1264;138782;-70
2023/09/25 10:08:11;;;;;;;3.90;2.50;;;;;;;23.28;58.72;101077.23;216543;1264;140019;-69
2023/09/25 10:13:26;;;;;;;3.50;2.30;;;;;;;23.46;58.64;101071.46;217850;1264;139669;-70
2023/09/25 10:18:31;;;;;;;3.90;2.10;;;;;;;23.70;58.61;101069.32;216947;1264;138932;-69
2023/09/25 10:23:54;;;;;;;7.50;2.80;;;;;;;23.73;58.42;101065.32;217935;1264;143175;-69
2023/09/25 10:29:14;;;;;;;2.60;2.40;;;;;;;23.87;57.73;101056.10;217492;1264;138696;-70
2023/09/25 10:34:23;;;;;;;2.90;2.60;;;;;;;23.96;57.82;101050.70;218308;1264;138856;-69
2023/09/25 10:39:28;;;;;;;2.10;1.70;;;;;;;23.95;57.54;101051.21;217558;1264;139632;-70
2023/09/25 10:44:35;;;;;;;6.60;2.80;;;;;;;24.26;57.13;101048.95;219002;1256;138816;-70
2023/09/25 10:49:41;;;;;;;4.70;2.30;;;;;;;24.55;56.82;101045.38;218774;1257;139578;-69
2023/09/25 10:54:46;;;;;;;2.60;2.30;;;;;;;24.71;56.09;101049.30;219165;1256;138961;-71
2023/09/25 10:59:51;;;;;;;6.30;3.10;;;;;;;24.87;56.20;101035.86;218761;1257;139561;-70
2023/09/25 11:04:56;;;;;;;4.70;2.70;;;;;;;24.94;55.50;101035.66;219442;1256;139561;-70
2023/09/25 11:10:03;;;;;;;2.50;2.30;;;;;;;24.82;54.61;101031.09;218344;1257;138756;-69
2023/09/25 11:15:17;;;;;;;5.20;2.80;;;;;;;24.73;54.44;101027.77;220499;1256;139290;-70
2023/09/25 11:20:29;;;;;;;3.50;2.40;;;;;;;24.78;54.54;101028.38;220410;1256;139268;-70
2023/09/25 11:25:46;;;;;;;3.10;2.50;;;;;;;24.81;53.97;101024.95;219425;1256;138774;-69
2023/09/25 11:30:51;;;;;;;2.40;2.20;;;;;;;24.36;53.52;101019.77;219386;1257;138569;-70
2023/09/25 11:35:57;;;;;;;3.40;2.20;;;;;;;24.39;53.85;101014.78;219602;1256;139670;-71
2023/09/25 11:41:05;;;;;;;2.30;2.20;;;;;;;24.44;53.61;101012.69;219413;1256;138721;-72
2023/09/25 11:46:13;;;;;;;4.80;2.20;;;;;;;24.54;53.86;101011.80;217899;1256;139017;-72
2023/09/25 11:51:19;;;;;;;2.30;2.10;;;;;;;24.62;53.66;101004.71;218852;1256;139415;-70
2023/09/25 11:56:26;;;;;;;2.30;2.10;;;;;;;24.52;53.51;100999.03;218540;1256;138843;-70
2023/09/25 12:01:32;;;;;;;5.00;2.60;;;;;;;24.52;53.77;100993.79;219115;1257;229272;-71
2023/09/25 12:06:39;;;;;;;3.40;2.40;;;;;;;24.55;53.94;100987.52;218262;1257;140271;-71
2023/09/25 12:11:45;;;;;;;3.00;2.80;;;;;;;24.60;53.90;100987.11;217950;1259;138738;-70
2023/09/25 12:16:49;;;;;;;3.10;2.90;;;;;;;24.56;53.51;100981.79;218163;1260;139172;-70
2023/09/25 12:21:54;;;;;;;2.70;2.50;;;;;;;24.66;53.94;100978.91;217966;1260;139242;-70
2023/09/25 12:27:02;;;;;;;3.00;2.60;;;;;;;24.72;53.59;100976.52;218280;1257;139890;-68
2023/09/25 12:32:10;;;;;;;4.00;2.30;;;;;;;24.66;53.38;100974.37;217821;1257;139576;-71
2023/09/25 12:37:17;;;;;;;2.80;2.60;;;;;;;24.47;53.34;100971.20;218158;1257;138953;-70
2023/09/25 12:42:24;;;;;;;2.40;2.20;;;;;;;24.13;53.55;100972.78;218489;1257;139600;-72
2023/09/25 12:47:47;;;;;;;2.70;2.60;;;;;;;23.87;53.57;100968.10;219127;1257;139314;-71
2023/09/25 12:52:54;;;;;;;2.20;2.00;;;;;;;23.86;53.44;100966.86;218694;1256;139349;-71
2023/09/25 12:58:00;;;;;;;2.60;2.20;;;;;;;24.06;53.87;100967.89;219116;1256;138789;-72
2023/09/25 13:03:06;;;;;;;;;;;;;;;24.05;53.49;100971.02;218742;1257;139730;-71
2023/09/25 13:08:13;;;;;;;2.80;2.60;;;;;;;24.09;53.56;100973.62;220770;1259;125355;-72
2023/09/25 13:13:19;;;;;;;2.80;2.60;;;;;;;24.04;53.27;100967.85;220187;1256;139025;-72
2023/09/25 13:18:25;;;;;;;3.40;2.80;;;;;;;24.05;53.33;100966.75;220017;1257;139621;-72
2023/09/25 13:23:31;;;;;;;7.30;2.10;;;;;;;24.12;53.36;100960.94;219349;1260;138889;-71
2023/09/25 13:28:35;;;;;;;3.40;2.80;;;;;;;24.15;53.17;100960.55;219138;1257;140063;-70
2023/09/25 13:33:41;;;;;;;1.80;1.70;;;;;;;24.07;52.77;100956.76;219488;1257;139571;-71
2023/09/25 13:38:46;;;;;;;2.60;2.30;;;;;;;24.04;53.13;100957.06;219647;1257;139984;-72
2023/09/25 13:43:52;;;;;;;3.00;2.00;;;;;;;24.07;52.96;100952.17;218984;1257;139262;-71
2023/09/25 13:49:00;;;;;;;3.20;2.10;;;;;;;24.05;52.94;100948.18;217981;1256;139038;-71
2023/09/25 13:54:06;;;;;;;4.20;2.10;;;;;;;23.98;53.03;100943.16;218311;1260;139322;-72
2023/09/25 13:59:14;;;;;;;3.90;2.20;;;;;;;23.92;53.10;100936.48;217872;1257;140060;-74
2023/09/25 14:04:19;;;;;;;3.80;2.30;;;;;;;24.01;53.59;100939.52;218702;1257;139540;-72
2023/09/25 14:09:26;;;;;;;2.60;2.40;;;;;;;23.99;53.32;100933.66;218422;1256;140073;-72
2023/09/25 14:14:47;;;;;;;3.10;2.40;;;;;;;23.91;53.19;100930.98;218793;1259;141116;-71
2023/09/25 14:19:53;;;;;;;3.40;2.20;;;;;;;23.83;53.25;100925.89;218583;1257;138296;-73
2023/09/25 14:25:02;;;;;;;2.50;2.00;;;;;;;23.61;52.83;100921.29;218251;1260;140576;-74
2023/09/25 14:30:12;;;;;;;5.40;2.10;;;;;;;23.44;53.20;100921.27;218553;1260;139912;-72
2023/09/25 14:35:18;;;;;;;2.00;1.80;;;;;;;23.29;53.52;100917.95;218192;1257;139158;-72
2023/09/25 14:40:23;;;;;;;2.10;1.90;;;;;;;23.28;53.48;100915.30;217868;1257;139674;-74
2023/09/25 14:45:28;;;;;;;3.10;2.30;;;;;;;23.23;53.76;100922.05;218888;1257;140087;-76
2023/09/25 14:50:33;;;;;;;4.80;2.10;;;;;;;22.96;53.98;100923.02;218599;1257;140461;-72
2023/09/25 14:55:38;;;;;;;2.00;1.80;;;;;;;22.89;54.25;100922.46;219693;1256;138918;-71
2023/09/25 15:01:04;;;;;;;9.00;2.80;;;;;;;22.90;54.33;100924.62;218705;1260;138925;-71
2023/09/25 15:06:15;;;;;;;;;;;;;;;22.92;54.62;100926.33;219942;1257;139275;-72
2023/09/25 15:11:22;;;;;;;2.40;2.20;;;;;;;22.80;54.96;100928.23;218325;1257;125715;-72
2023/09/25 15:16:27;;;;;;;3.70;2.30;;;;;;;22.79;55.14;100931.73;219984;1257;138901;-72
2023/09/25 15:21:32;;;;;;;11.20;2.10;;;;;;;22.77;55.28;100934.35;218321;1257;138851;-71
2023/09/25 15:26:36;;;;;;;2.50;2.30;;;;;;;22.63;55.14;100930.39;220412;1257;139657;-72
2023/09/25 15:31:41;;;;;;;3.00;2.80;;;;;;;22.50;55.58;100938.12;218836;1257;138672;-71
2023/09/25 15:36:47;;;;;;;4.00;3.40;;;;;;;22.37;55.97;100937.94;220134;1257;139335;-72
2023/09/25 15:41:52;;;;;;;4.20;3.90;;;;;;;22.22;56.27;100938.50;219012;1257;139132;-72
2023/09/25 15:46:58;;;;;;;3.60;3.40;;;;;;;22.04;56.83;100943.39;218750;1257;139275;-72
2023/09/25 15:52:07;;;;;;;31.90;5.60;;;;;;;21.90;57.49;100941.56;218702;1257;138743;-71
2023/09/25 15:57:12;;;;;;;5.00;4.50;;;;;;;21.78;57.87;100939.23;218453;1257;139916;-73
2023/09/25 16:02:18;;;;;;;5.90;4.80;;;;;;;21.66;58.22;100941.16;218507;1260;139089;-71
2023/09/25 16:07:23;;;;;;;5.40;4.90;;;;;;;21.52;58.57;100943.21;218536;1259;139366;-72
2023/09/25 16:12:28;;;;;;;5.90;5.40;;;;;;;21.33;58.90;100945.27;218675;1257;140186;-72
2023/09/25 16:17:33;;;;;;;6.90;6.30;;;;;;;21.15;59.35;100947.33;218254;1257;140671;-71
2023/09/25 16:22:45;;;;;;;6.90;6.30;;;;;;;20.96;59.76;100942.13;218451;1256;139526;-71
2023/09/25 16:27:53;;;;;;;7.50;6.80;;;;;;;20.76;60.16;100946.16;217997;1257;140388;-71
2023/09/25 16:32:59;;;;;;;8.50;7.50;;;;;;;20.59;60.59;100947.30;218095;1257;139508;-71
2023/09/25 16:38:07;;;;;;;7.40;6.80;;;;;;;20.42;61.14;100950.52;219026;1257;139755;-72
2023/09/25 16:43:13;;;;;;;11.30;7.50;;;;;;;20.29;61.70;100953.29;218061;1260;139026;-72
2023/09/25 16:48:18;;;;;;;7.70;6.70;;;;;;;20.12;62.11;100956.20;218031;1260;139396;-72
2023/09/25 16:53:24;;;;;;;6.40;5.80;;;;;;;19.96;62.38;100959.89;217991;1257;139518;-73
2023/09/25 16:58:30;;;;;;;9.50;7.40;;;;;;;19.86;62.99;100962.58;217861;1260;139830;-74
2023/09/25 17:03:35;;;;;;;7.40;6.90;;;;;;;19.79;63.54;100961.42;217897;1260;139579;-72
2023/09/25 17:08:41;;;;;;;7.20;6.70;;;;;;;19.72;63.90;100960.00;219355;1260;141106;-72
2023/09/25 17:13:49;;;;;;;7.90;7.10;;;;;;;19.63;64.23;100958.81;219313;1260;140153;-70
2023/09/25 17:18:54;;;;;;;7.90;7.10;;;;;;;19.49;64.46;100953.50;219708;1260;139741;-74
2023/09/25 17:23:58;;;;;;;7.50;6.80;;;;;;;19.34;64.80;100952.92;220070;1259;139571;-72
2023/09/25 17:29:04;;;;;;;6.30;5.70;;;;;;;19.23;65.20;100948.77;219807;1260;140316;-71
2023/09/25 17:34:17;;;;;;;7.10;6.10;;;;;;;19.15;65.66;100944.35;219173;1257;140397;-72
2023/09/25 17:39:23;;;;;;;5.50;5.10;;;;;;;19.07;66.02;100954.02;218570;1260;139429;-72
2023/09/25 17:44:30;;;;;;;7.90;5.30;;;;;;;19.01;66.40;100951.55;217574;1256;140308;-72
2023/09/25 17:49:34;;;;;;;;;;;;;;;18.94;66.62;100953.30;218401;1256;140565;-73
2023/09/25 17:54:38;;;;;;;4.30;3.90;;;;;;;18.91;67.17;100960.69;218274;1260;126367;-71
2023/09/25 17:59:42;;;;;;;6.00;5.20;;;;;;;18.93;67.35;100959.69;218517;1260;139873;-72
2023/09/25 18:04:51;;;;;;;5.20;4.70;;;;;;;18.94;67.71;100955.05;218334;1260;140855;-72
2023/09/25 18:09:57;;;;;;;8.90;4.00;;;;;;;18.96;67.89;100953.36;217675;1257;140745;-72
2023/09/25 18:15:07;;;;;;;5.20;4.70;;;;;;;18.98;68.20;100952.02;217756;1260;140131;-73
2023/09/25 18:20:10;;;;;;;6.90;5.30;;;;;;;18.98;68.52;100951.37;217535;1261;140242;-73
2023/09/25 18:25:16;;;;;;;7.60;5.10;;;;;;;18.98;68.75;100951.96;217638;1257;139965;-72
2023/09/25 18:30:20;;;;;;;8.00;5.70;;;;;;;18.99;69.36;100950.83;217480;1260;140545;-70
2023/09/25 18:35:25;;;;;;;6.20;4.90;;;;;;;19.00;69.53;100951.98;218414;1260;140381;-72
2023/09/25 18:40:31;;;;;;;5.60;4.90;;;;;;;18.99;69.64;100957.38;217755;1260;140479;-72
2023/09/25 18:45:41;;;;;;;5.90;5.20;;;;;;;18.96;69.89;100954.83;218536;1260;139705;-72
2023/09/25 18:50:47;;;;;;;6.80;4.80;;;;;;;18.91;70.10;100954.86;218289;1258;140355;-72
2023/09/25 18:55:51;;;;;;;6.30;4.90;;;;;;;18.87;70.02;100958.77;219281;1258;140166;-73
2023/09/25 19:00:57;;;;;;;6.30;4.60;;;;;;;18.83;70.20;100957.66;217689;1258;140354;-71
2023/09/25 19:06:03;;;;;;;6.10;4.50;;;;;;;18.84;70.13;100956.31;218489;1257;140424;-72
2023/09/25 19:11:10;;;;;;;5.30;4.50;;;;;;;18.81;70.13;100958.46;218408;1258;140891;-71
2023/09/25 19:16:20;;;;;;;8.40;4.80;;;;;;;18.78;70.17;100953.46;218915;1257;139976;-72
2023/09/25 19:21:27;;;;;;;5.60;4.10;;;;;;;18.80;70.29;100957.36;220457;1260;140628;-73
2023/09/25 19:26:33;;;;;;;4.20;3.80;;;;;;;18.81;70.41;100959.05;219085;1260;140290;-71
2023/09/25 19:31:39;;;;;;;;;;;;;;;18.78;70.38;100953.63;218477;1258;143133;-71
2023/09/25 19:36:48;;;;;;;6.10;3.70;;;;;;;18.73;70.46;100947.59;219485;1257;221068;-76
2023/09/25 19:41:52;;;;;;;4.20;3.40;;;;;;;18.72;70.52;100948.98;217995;1256;139558;-78
2023/09/25 19:46:59;;;;;;;6.70;5.10;;;;;;;18.71;70.65;100945.40;217932;1260;139877;-73
2023/09/25 19:52:04;;;;;;;;;;;;;;;18.67;70.73;100944.08;218300;1260;143087;-72
2023/09/25 19:57:16;;;;;;;6.70;4.70;;;;;;;18.62;71.08;100944.11;218345;1260;126399;-70
2023/09/25 20:02:21;;;;;;;4.60;3.70;;;;;;;18.62;71.06;100942.49;218169;1259;140555;-69
2023/09/25 20:07:26;;;;;;;4.20;3.70;;;;;;;18.58;71.22;100935.46;218150;1259;139644;-67
2023/09/25 20:12:30;;;;;;;9.30;3.90;;;;;;;18.56;71.29;100934.91;218030;1257;139913;-70
2023/09/25 20:17:37;;;;;;;6.90;4.10;;;;;;;18.55;71.50;100933.16;218561;1257;139113;-68
2023/09/25 20:23:28;;;;;;;5.40;4.30;;;;;;;18.53;71.55;100934.93;218028;1257;140929;-68
2023/09/25 20:28:35;;;;;;;5.20;4.70;;;;;;;18.49;71.65;100933.50;218379;1257;140271;-68
2023/09/25 20:35:40;;;;;;;4.80;4.40;;;;;;;18.47;71.65;100935.27;215522;1288;636106;-75
2023/09/25 20:40:50;;;;;;;5.10;4.20;;;;;;;18.40;71.80;100933.41;216643;1272;139871;-77
2023/09/25 20:46:00;;;;;;;6.50;4.70;;;;;;;18.40;72.11;100938.86;214709;1272;3102058;-71
2023/09/25 20:51:16;;;;;;;8.10;4.90;;;;;;;18.44;72.30;100939.98;216699;1271;140188;-74
2023/09/25 20:56:22;;;;;;;5.80;4.90;;;;;;;18.45;72.58;100944.69;217118;1267;139803;-71
2023/09/25 21:01:29;;;;;;;4.70;3.90;;;;;;;18.44;72.42;100941.44;216561;1267;139330;-80
2023/09/25 21:06:35;;;;;;;;;;;;;;;18.39;72.47;100939.52;216704;1270;139359;-75
2023/09/25 21:11:41;;;;;;;4.50;4.20;;;;;;;18.33;72.47;100938.45;217197;1265;125930;-74
2023/09/25 21:16:47;;;;;;;21.90;5.10;;;;;;;18.33;72.67;100935.16;217513;1264;140210;-72
2023/09/25 21:21:53;;;;;;;4.30;3.90;;;;;;;18.34;72.69;100935.74;218319;1268;139910;-77
2023/09/25 21:27:00;;;;;;;7.80;4.70;;;;;;;18.29;72.64;100937.59;217780;1267;140828;-77
2023/09/25 21:32:06;;;;;;;4.70;4.30;;;;;;;18.18;72.45;100938.36;217456;1264;139878;-70
2023/09/25 21:37:11;;;;;;;24.20;5.60;;;;;;;18.06;72.54;100936.45;218633;1263;139631;-69
2023/09/25 21:42:16;;;;;;;4.40;4.00;;;;;;;17.96;72.65;100936.85;218337;1261;140404;-68
2023/09/25 21:47:21;;;;;;;7.10;4.40;;;;;;;17.83;72.64;100934.11;217605;1260;139330;-72
2023/09/25 21:52:26;;;;;;;6.50;4.40;;;;;;;17.68;72.55;100934.00;217721;1265;139849;-72
2023/09/25 21:57:31;;;;;;;6.00;4.40;;;;;;;17.55;72.68;100938.14;218372;1261;139560;-70
2023/09/25 22:02:39;;;;;;;6.70;4.90;;;;;;;17.42;72.96;100943.15;217614;1264;140849;-69
2023/09/25 22:07:44;;;;;;;4.20;3.70;;;;;;;17.29;72.91;100939.98;217734;1261;139842;-73
2023/09/25 22:12:50;;;;;;;4.70;4.30;;;;;;;17.13;73.07;100938.35;217668;1264;140905;-76
2023/09/25 22:17:56;;;;;;;5.60;4.10;;;;;;;16.90;73.07;100941.41;217348;1261;140076;-77
2023/09/25 22:23:04;;;;;;;6.30;3.90;;;;;;;16.65;73.39;100931.71;217248;1264;139121;-79
2023/09/25 22:28:08;;;;;;;5.20;4.60;;;;;;;16.52;73.78;100932.23;217141;1266;140053;-79
2023/09/25 22:33:12;;;;;;;6.20;4.40;;;;;;;16.38;73.95;100929.22;217575;1264;140805;-78
2023/09/25 22:38:17;;;;;;;5.40;4.40;;;;;;;16.27;74.22;100928.69;217603;1261;140558;-79
2023/09/25 22:43:23;;;;;;;6.30;4.50;;;;;;;16.16;74.41;100929.17;217693;1261;140515;-75
2023/09/25 22:48:30;;;;;;;4.00;3.70;;;;;;;16.05;74.62;100929.39;217937;1257;139718;-78
2023/09/25 22:53:35;;;;;;;6.20;4.40;;;;;;;15.95;74.72;100924.89;218800;1257;230417;-78
2023/09/25 22:58:41;;;;;;;6.70;4.50;;;;;;;15.77;74.41;100920.16;218256;1258;139477;-78
2023/09/25 23:03:47;;;;;;;6.20;4.40;;;;;;;15.53;74.72;100914.46;218550;1257;139849;-75
2023/09/25 23:08:56;;;;;;;6.80;4.10;;;;;;;15.38;75.19;100915.55;218258;1257;140411;-74
2023/09/25 23:14:02;;;;;;;4.60;4.00;;;;;;;15.31;75.44;100916.69;218195;1256;140315;-74
2023/09/25 23:19:08;;;;;;;4.60;4.20;;;;;;;15.22;75.82;100912.75;219269;1257;139440;-74